sensor_id;sensor_type;location;lat;lon;timestamp;pressure;altitude;pressure_sealevel;temperature;humidity
62703;BME280;66022;50.448;18.122;2023-03-25T00:04:00;98191.31;;;11.85;84.25
62703;BME280;66022;50.448;18.122;2023-03-25T00:08:03;98189.45;;;11.82;84.64
62703;BME280;66022;50.448;18.122;2023-03-25T00:12:08;98186.81;;;11.80;83.20
62703;BME280;66022;50.448;18.122;2023-03-25T00:16:19;98184.95;;;11.77;86.40
62703;BME280;66022;50.448;18.122;2023-03-25T00:20:21;98183.67;;;11.77;82.81
62703;BME280;66022;50.448;18.122;2023-03-25T00:24:21;98182.40;;;11.80;81.33
62703;BME280;66022;50.448;18.122;2023-03-25T00:28:26;98180.66;;;11.79;80.67
62703;BME280;66022;50.448;18.122;2023-03-25T00:32:27;98178.41;;;11.84;80.14
62703;BME280;66022;50.448;18.122;2023-03-25T00:36:31;98175.04;;;11.83;82.59
62703;BME280;66022;50.448;18.122;2023-03-25T00:40:35;98173.36;;;11.84;80.13
62703;BME280;66022;50.448;18.122;2023-03-25T00:44:39;98171.84;;;11.84;79.28
62703;BME280;66022;50.448;18.122;2023-03-25T00:48:43;98171.33;;;11.79;80.20
62703;BME280;66022;50.448;18.122;2023-03-25T00:52:47;98170.24;;;11.77;79.25
62703;BME280;66022;50.448;18.122;2023-03-25T00:56:51;98169.86;;;11.72;80.34
62703;BME280;66022;50.448;18.122;2023-03-25T01:00:55;98168.80;;;11.69;79.77
62703;BME280;66022;50.448;18.122;2023-03-25T01:04:59;98167.88;;;11.65;79.58
62703;BME280;66022;50.448;18.122;2023-03-25T01:09:04;98168.20;;;11.60;79.29
62703;BME280;66022;50.448;18.122;2023-03-25T01:13:07;98168.55;;;11.56;79.13
62703;BME280;66022;50.448;18.122;2023-03-25T01:17:11;98166.11;;;11.51;79.51
62703;BME280;66022;50.448;18.122;2023-03-25T01:21:15;98163.30;;;11.47;78.65
62703;BME280;66022;50.448;18.122;2023-03-25T01:25:19;98159.92;;;11.44;78.90
62703;BME280;66022;50.448;18.122;2023-03-25T01:29:23;98158.51;;;11.39;78.73
62703;BME280;66022;50.448;18.122;2023-03-25T01:33:27;98158.31;;;11.36;78.58
62703;BME280;66022;50.448;18.122;2023-03-25T01:37:31;98157.31;;;11.32;79.67
62703;BME280;66022;50.448;18.122;2023-03-25T01:41:35;98155.35;;;11.29;79.02
62703;BME280;66022;50.448;18.122;2023-03-25T01:45:39;98153.64;;;11.25;78.93
62703;BME280;66022;50.448;18.122;2023-03-25T01:49:43;98153.19;;;11.22;79.23
62703;BME280;66022;50.448;18.122;2023-03-25T01:53:47;98152.13;;;11.19;78.80
62703;BME280;66022;50.448;18.122;2023-03-25T01:57:51;98150.23;;;11.17;78.31
62703;BME280;66022;50.448;18.122;2023-03-25T02:01:56;98147.78;;;11.16;77.70
62703;BME280;66022;50.448;18.122;2023-03-25T02:06:03;98146.30;;;11.16;78.37
62703;BME280;66022;50.448;18.122;2023-03-25T02:10:07;98147.33;;;11.15;78.42
62703;BME280;66022;50.448;18.122;2023-03-25T02:14:08;98147.37;;;11.15;77.95
62703;BME280;66022;50.448;18.122;2023-03-25T02:30:29;98151.45;;;11.12;79.43
62703;BME280;66022;50.448;18.122;2023-03-25T02:38:40;98156.60;;;11.07;79.21
62703;BME280;66022;50.448;18.122;2023-03-25T02:42:54;98154.24;;;11.05;78.78
62703;BME280;66022;50.448;18.122;2023-03-25T02:46:47;98151.75;;;10.98;82.32
62703;BME280;66022;50.448;18.122;2023-03-25T02:50:50;98151.23;;;10.97;79.54
62703;BME280;66022;50.448;18.122;2023-03-25T02:54:47;98150.78;;;10.95;79.04
62703;BME280;66022;50.448;18.122;2023-03-25T02:58:52;98152.92;;;10.93;79.76
62703;BME280;66022;50.448;18.122;2023-03-25T03:06:59;98160.40;;;10.90;81.32
62703;BME280;66022;50.448;18.122;2023-03-25T03:15:17;98163.92;;;10.88;79.65
62703;BME280;66022;50.448;18.122;2023-03-25T03:19:57;98163.53;;;10.86;80.20
62703;BME280;66022;50.448;18.122;2023-03-25T03:35:29;98170.78;;;10.75;80.04
62703;BME280;66022;50.448;18.122;2023-03-25T03:39:31;98172.57;;;10.67;80.40
62703;BME280;66022;50.448;18.122;2023-03-25T03:43:39;98175.75;;;10.62;80.44
62703;BME280;66022;50.448;18.122;2023-03-25T03:47:40;98178.33;;;10.56;81.42
62703;BME280;66022;50.448;18.122;2023-03-25T03:59:56;98188.49;;;10.43;80.90
62703;BME280;66022;50.448;18.122;2023-03-25T04:03:59;98190.63;;;10.38;81.03
62703;BME280;66022;50.448;18.122;2023-03-25T04:08:00;98192.60;;;10.33;81.89
62703;BME280;66022;50.448;18.122;2023-03-25T04:12:11;98194.51;;;10.29;81.14
62703;BME280;66022;50.448;18.122;2023-03-25T04:16:07;98195.72;;;10.25;83.14
62703;BME280;66022;50.448;18.122;2023-03-25T04:20:15;98197.67;;;10.22;81.50
62703;BME280;66022;50.448;18.122;2023-03-25T04:24:15;98199.69;;;10.19;81.25
62703;BME280;66022;50.448;18.122;2023-03-25T04:28:19;98202.91;;;10.12;81.84
62703;BME280;66022;50.448;18.122;2023-03-25T04:32:23;98204.47;;;10.08;81.15
62703;BME280;66022;50.448;18.122;2023-03-25T04:36:27;98208.04;;;10.00;84.56
62703;BME280;66022;50.448;18.122;2023-03-25T04:40:31;98212.33;;;9.95;81.87
62703;BME280;66022;50.448;18.122;2023-03-25T04:44:35;98215.16;;;9.91;81.46
62703;BME280;66022;50.448;18.122;2023-03-25T04:48:39;98215.77;;;9.81;82.40
62703;BME280;66022;50.448;18.122;2023-03-25T04:52:43;98216.90;;;9.78;81.70
62703;BME280;66022;50.448;18.122;2023-03-25T04:56:47;98217.50;;;9.73;85.38
62703;BME280;66022;50.448;18.122;2023-03-25T05:00:51;98218.78;;;9.70;81.71
62703;BME280;66022;50.448;18.122;2023-03-25T05:04:55;98220.96;;;9.67;82.07
62703;BME280;66022;50.448;18.122;2023-03-25T05:08:59;98223.60;;;9.64;82.50
62703;BME280;66022;50.448;18.122;2023-03-25T05:13:04;98225.90;;;9.63;82.18
62703;BME280;66022;50.448;18.122;2023-03-25T05:17:07;98227.44;;;9.60;83.48
62703;BME280;66022;50.448;18.122;2023-03-25T05:21:11;98230.00;;;9.60;81.40
62703;BME280;66022;50.448;18.122;2023-03-25T05:25:15;98232.87;;;9.62;81.42
62703;BME280;66022;50.448;18.122;2023-03-25T05:29:19;98236.33;;;9.64;81.40
62703;BME280;66022;50.448;18.122;2023-03-25T05:33:23;98238.00;;;9.64;81.46
62703;BME280;66022;50.448;18.122;2023-03-25T05:37:27;98239.63;;;9.61;82.41
62703;BME280;66022;50.448;18.122;2023-03-25T05:41:31;98241.08;;;9.61;81.04
62703;BME280;66022;50.448;18.122;2023-03-25T05:45:35;98242.35;;;9.60;80.60
62703;BME280;66022;50.448;18.122;2023-03-25T05:49:39;98243.30;;;9.59;81.01
62703;BME280;66022;50.448;18.122;2023-03-25T05:53:44;98243.47;;;9.59;80.09
62703;BME280;66022;50.448;18.122;2023-03-25T05:57:47;98242.99;;;9.61;80.37
62703;BME280;66022;50.448;18.122;2023-03-25T06:01:51;98243.73;;;9.66;79.67
62703;BME280;66022;50.448;18.122;2023-03-25T06:05:55;98244.75;;;9.70;80.10
62703;BME280;66022;50.448;18.122;2023-03-25T06:10:07;98246.59;;;9.73;80.28
62703;BME280;66022;50.448;18.122;2023-03-25T06:14:11;98247.78;;;9.79;79.31
62703;BME280;66022;50.448;18.122;2023-03-25T06:22:14;98249.36;;;10.04;78.87
62703;BME280;66022;50.448;18.122;2023-03-25T06:26:20;98249.17;;;10.21;81.38
62703;BME280;66022;50.448;18.122;2023-03-25T06:30:20;98248.55;;;10.43;78.24
62703;BME280;66022;50.448;18.122;2023-03-25T06:34:23;98248.24;;;10.64;77.98
62703;BME280;66022;50.448;18.122;2023-03-25T06:38:27;98247.53;;;10.78;78.08
62703;BME280;66022;50.448;18.122;2023-03-25T06:42:31;98247.39;;;10.94;77.33
62703;BME280;66022;50.448;18.122;2023-03-25T06:46:35;98246.30;;;11.05;77.62
62703;BME280;66022;50.448;18.122;2023-03-25T06:50:39;98245.40;;;11.18;76.27
62703;BME280;66022;50.448;18.122;2023-03-25T06:54:43;98244.26;;;11.33;75.36
62703;BME280;66022;50.448;18.122;2023-03-25T06:58:47;98243.48;;;11.56;74.07
62703;BME280;66022;50.448;18.122;2023-03-25T07:02:51;98241.74;;;11.83;73.92
62703;BME280;66022;50.448;18.122;2023-03-25T07:06:55;98240.89;;;12.12;72.55
62703;BME280;66022;50.448;18.122;2023-03-25T07:11:00;98241.30;;;12.61;70.00
62703;BME280;66022;50.448;18.122;2023-03-25T07:15:06;98240.03;;;13.19;67.09
62703;BME280;66022;50.448;18.122;2023-03-25T07:19:07;98238.48;;;13.78;66.27
62703;BME280;66022;50.448;18.122;2023-03-25T07:23:11;98233.51;;;14.40;64.04
62703;BME280;66022;50.448;18.122;2023-03-25T07:27:15;98228.76;;;14.93;61.43
62703;BME280;66022;50.448;18.122;2023-03-25T07:31:19;98224.93;;;15.47;62.03
62703;BME280;66022;50.448;18.122;2023-03-25T07:35:23;98222.08;;;15.93;58.65
62703;BME280;66022;50.448;18.122;2023-03-25T07:39:27;98218.84;;;16.31;60.41
62703;BME280;66022;50.448;18.122;2023-03-25T07:43:31;98215.37;;;16.62;61.66
62703;BME280;66022;50.448;18.122;2023-03-25T07:47:35;98212.73;;;16.78;60.42
62703;BME280;66022;50.448;18.122;2023-03-25T07:51:39;98211.91;;;16.95;59.46
62703;BME280;66022;50.448;18.122;2023-03-25T07:55:43;98212.38;;;17.15;60.58
62703;BME280;66022;50.448;18.122;2023-03-25T07:59:47;98212.73;;;17.36;59.00
62703;BME280;66022;50.448;18.122;2023-03-25T08:03:51;98212.36;;;17.46;61.41
62703;BME280;66022;50.448;18.122;2023-03-25T08:07:55;98211.52;;;17.51;59.61
62703;BME280;66022;50.448;18.122;2023-03-25T08:11:59;98208.91;;;17.60;60.55
62703;BME280;66022;50.448;18.122;2023-03-25T08:16:08;98207.00;;;17.67;58.11
62703;BME280;66022;50.448;18.122;2023-03-25T08:20:07;98206.14;;;17.64;61.24
62703;BME280;66022;50.448;18.122;2023-03-25T08:24:11;98206.81;;;17.54;59.92
62703;BME280;66022;50.448;18.122;2023-03-25T08:28:16;98206.70;;;17.31;61.49
62703;BME280;66022;50.448;18.122;2023-03-25T08:32:19;98206.17;;;17.09;61.32
62703;BME280;66022;50.448;18.122;2023-03-25T08:36:23;98207.44;;;16.79;61.27
62703;BME280;66022;50.448;18.122;2023-03-25T08:40:27;98206.56;;;16.50;62.22
62703;BME280;66022;50.448;18.122;2023-03-25T08:44:31;98207.26;;;16.22;64.16
62703;BME280;66022;50.448;18.122;2023-03-25T08:48:35;98208.67;;;15.91;62.86
62703;BME280;66022;50.448;18.122;2023-03-25T08:52:39;98209.28;;;15.69;64.08
62703;BME280;66022;50.448;18.122;2023-03-25T08:56:43;98208.95;;;15.50;62.81
62703;BME280;66022;50.448;18.122;2023-03-25T09:00:47;98207.79;;;15.41;63.83
62703;BME280;66022;50.448;18.122;2023-03-25T09:04:51;98207.78;;;15.33;64.03
62703;BME280;66022;50.448;18.122;2023-03-25T09:08:55;98207.59;;;15.21;63.92
62703;BME280;66022;50.448;18.122;2023-03-25T09:12:59;98206.73;;;15.16;63.17
62703;BME280;66022;50.448;18.122;2023-03-25T09:17:03;98205.66;;;15.11;62.36
62703;BME280;66022;50.448;18.122;2023-03-25T09:21:07;98205.47;;;15.10;63.35
62703;BME280;66022;50.448;18.122;2023-03-25T09:25:11;98204.49;;;15.09;63.13
62703;BME280;66022;50.448;18.122;2023-03-25T09:29:15;98204.77;;;15.09;62.93
62703;BME280;66022;50.448;18.122;2023-03-25T09:33:19;98204.81;;;15.14;62.42
62703;BME280;66022;50.448;18.122;2023-03-25T09:37:23;98204.74;;;15.18;60.10
62703;BME280;66022;50.448;18.122;2023-03-25T09:45:34;98200.89;;;15.30;61.43
62703;BME280;66022;50.448;18.122;2023-03-25T09:49:39;98197.23;;;15.35;61.08
62703;BME280;66022;50.448;18.122;2023-03-25T09:57:44;98192.00;;;15.63;58.31
62703;BME280;66022;50.448;18.122;2023-03-25T10:22:11;98181.30;;;17.23;57.08
62703;BME280;66022;50.448;18.122;2023-03-25T10:26:13;98181.37;;;17.29;54.62
62703;BME280;66022;50.448;18.122;2023-03-25T10:34:22;98179.11;;;17.19;57.08
62703;BME280;66022;50.448;18.122;2023-03-25T10:38:23;98178.58;;;17.05;56.96
62703;BME280;66022;50.448;18.122;2023-03-25T10:46:36;98177.08;;;16.80;56.94
62703;BME280;66022;50.448;18.122;2023-03-25T10:50:35;98175.47;;;16.71;58.24
62703;BME280;66022;50.448;18.122;2023-03-25T10:54:40;98173.33;;;16.67;59.05
62703;BME280;66022;50.448;18.122;2023-03-25T10:58:45;98172.25;;;16.60;58.54
62703;BME280;66022;50.448;18.122;2023-03-25T11:02:47;98171.45;;;16.59;57.61
62703;BME280;66022;50.448;18.122;2023-03-25T11:06:53;98171.86;;;16.53;56.50
62703;BME280;66022;50.448;18.122;2023-03-25T11:10:55;98171.34;;;16.53;58.89
62703;BME280;66022;50.448;18.122;2023-03-25T11:14:59;98170.48;;;16.56;57.48
62703;BME280;66022;50.448;18.122;2023-03-25T11:19:04;98170.12;;;16.53;58.26
62703;BME280;66022;50.448;18.122;2023-03-25T11:23:13;98170.75;;;16.52;58.00
62703;BME280;66022;50.448;18.122;2023-03-25T11:27:16;98168.72;;;16.45;57.26
62703;BME280;66022;50.448;18.122;2023-03-25T11:31:17;98165.55;;;16.41;57.07
62703;BME280;66022;50.448;18.122;2023-03-25T11:43:30;98152.77;;;16.58;55.99
62703;BME280;66022;50.448;18.122;2023-03-25T11:47:32;98148.86;;;16.57;55.68
62703;BME280;66022;50.448;18.122;2023-03-25T11:51:35;98144.24;;;16.59;56.17
62703;BME280;66022;50.448;18.122;2023-03-25T11:55:44;98137.09;;;16.60;55.34
62703;BME280;66022;50.448;18.122;2023-03-25T11:59:44;98131.58;;;16.62;55.49
62703;BME280;66022;50.448;18.122;2023-03-25T12:03:47;98126.83;;;16.58;53.51
62703;BME280;66022;50.448;18.122;2023-03-25T12:07:59;98124.16;;;16.49;55.30
62703;BME280;66022;50.448;18.122;2023-03-25T12:32:18;98105.11;;;16.50;54.07
62703;BME280;66022;50.448;18.122;2023-03-25T13:13:00;98100.71;;;16.33;54.12
62703;BME280;66022;50.448;18.122;2023-03-25T13:17:04;98101.64;;;16.24;54.13
62703;BME280;66022;50.448;18.122;2023-03-25T13:21:05;98102.17;;;16.18;55.11
62703;BME280;66022;50.448;18.122;2023-03-25T13:25:09;98101.79;;;16.12;54.44
62703;BME280;66022;50.448;18.122;2023-03-25T13:33:18;98099.64;;;15.95;55.11
62703;BME280;66022;50.448;18.122;2023-03-25T13:37:23;98098.66;;;15.88;53.92
62703;BME280;66022;50.448;18.122;2023-03-25T13:45:29;98095.20;;;15.78;55.89
62703;BME280;66022;50.448;18.122;2023-03-25T13:49:33;98093.79;;;15.73;55.95
62703;BME280;66022;50.448;18.122;2023-03-25T14:01:50;98103.10;;;15.47;57.78
62703;BME280;66022;50.448;18.122;2023-03-25T14:05:53;98104.41;;;15.35;58.18
62703;BME280;66022;50.448;18.122;2023-03-25T14:14:00;98106.00;;;15.11;59.71
62703;BME280;66022;50.448;18.122;2023-03-25T14:17:59;98108.29;;;14.99;59.60
62703;BME280;66022;50.448;18.122;2023-03-25T14:26:07;98111.30;;;14.80;60.25
62703;BME280;66022;50.448;18.122;2023-03-25T14:30:17;98113.05;;;14.70;60.04
62703;BME280;66022;50.448;18.122;2023-03-25T14:38:20;98113.01;;;14.50;58.64
62703;BME280;66022;50.448;18.122;2023-03-25T14:42:24;98110.41;;;14.47;57.29
62703;BME280;66022;50.448;18.122;2023-03-25T14:46:27;98110.89;;;14.46;54.11
62703;BME280;66022;50.448;18.122;2023-03-25T14:50:31;98111.11;;;14.51;55.68
62703;BME280;66022;50.448;18.122;2023-03-25T14:54:35;98109.70;;;14.55;54.03
62703;BME280;66022;50.448;18.122;2023-03-25T14:58:39;98109.27;;;14.54;55.47
62703;BME280;66022;50.448;18.122;2023-03-25T15:02:43;98107.85;;;14.53;56.23
62703;BME280;66022;50.448;18.122;2023-03-25T15:06:47;98107.01;;;14.48;54.79
62703;BME280;66022;50.448;18.122;2023-03-25T15:14:57;98106.94;;;14.38;56.33
62703;BME280;66022;50.448;18.122;2023-03-25T15:27:11;98113.89;;;14.07;57.39
62703;BME280;66022;50.448;18.122;2023-03-25T15:39:23;98123.47;;;13.81;58.21
62703;BME280;66022;50.448;18.122;2023-03-25T15:47:30;98136.93;;;13.65;59.28
62703;BME280;66022;50.448;18.122;2023-03-25T15:55:39;98146.95;;;13.50;62.09
62703;BME280;66022;50.448;18.122;2023-03-25T15:59:43;98149.34;;;13.41;63.99
62703;BME280;66022;50.448;18.122;2023-03-25T16:03:44;98148.93;;;13.35;63.65
62703;BME280;66022;50.448;18.122;2023-03-25T16:07:47;98147.03;;;13.27;63.15
62703;BME280;66022;50.448;18.122;2023-03-25T16:11:56;98143.92;;;13.20;63.96
62703;BME280;66022;50.448;18.122;2023-03-25T16:15:55;98139.08;;;13.12;64.02
62703;BME280;66022;50.448;18.122;2023-03-25T16:20:00;98135.36;;;13.04;63.62
62703;BME280;66022;50.448;18.122;2023-03-25T16:24:04;98133.01;;;12.97;63.87
62703;BME280;66022;50.448;18.122;2023-03-25T16:32:15;98131.22;;;12.79;63.32
62703;BME280;66022;50.448;18.122;2023-03-25T16:36:16;98131.13;;;12.69;61.15
62703;BME280;66022;50.448;18.122;2023-03-25T16:40:22;98132.36;;;12.61;62.60
62703;BME280;66022;50.448;18.122;2023-03-25T16:44:23;98134.92;;;12.53;62.48
62703;BME280;66022;50.448;18.122;2023-03-25T16:48:29;98138.97;;;12.43;62.31
62703;BME280;66022;50.448;18.122;2023-03-25T16:52:32;98142.67;;;12.35;62.81
62703;BME280;66022;50.448;18.122;2023-03-25T16:56:36;98146.15;;;12.22;63.37
62703;BME280;66022;50.448;18.122;2023-03-25T17:00:40;98150.12;;;12.12;63.69
62703;BME280;66022;50.448;18.122;2023-03-25T17:04:43;98153.27;;;12.03;63.46
62703;BME280;66022;50.448;18.122;2023-03-25T17:08:48;98156.95;;;11.88;63.90
62703;BME280;66022;50.448;18.122;2023-03-25T17:12:53;98160.15;;;11.79;64.32
62703;BME280;66022;50.448;18.122;2023-03-25T17:16:55;98164.76;;;11.67;65.10
62703;BME280;66022;50.448;18.122;2023-03-25T17:21:00;98168.77;;;11.59;64.58
62703;BME280;66022;50.448;18.122;2023-03-25T17:29:09;98176.06;;;11.42;65.04
62703;BME280;66022;50.448;18.122;2023-03-25T17:33:13;98177.75;;;11.35;64.96
62703;BME280;66022;50.448;18.122;2023-03-25T17:37:16;98180.13;;;11.27;65.79
62703;BME280;66022;50.448;18.122;2023-03-25T17:41:20;98182.07;;;11.21;65.97
62703;BME280;66022;50.448;18.122;2023-03-25T17:45:24;98184.19;;;11.15;67.16
62703;BME280;66022;50.448;18.122;2023-03-25T17:49:27;98183.58;;;11.09;67.38
62703;BME280;66022;50.448;18.122;2023-03-25T17:53:32;98179.28;;;11.04;66.66
62703;BME280;66022;50.448;18.122;2023-03-25T17:57:36;98176.48;;;10.97;68.17
62703;BME280;66022;50.448;18.122;2023-03-25T18:01:40;98174.50;;;10.93;67.84
62703;BME280;66022;50.448;18.122;2023-03-25T18:05:44;98172.22;;;10.89;67.08
62703;BME280;66022;50.448;18.122;2023-03-25T18:09:48;98168.27;;;10.85;67.73
62703;BME280;66022;50.448;18.122;2023-03-25T18:13:52;98164.14;;;10.81;67.82
62703;BME280;66022;50.448;18.122;2023-03-25T18:17:56;98160.92;;;10.78;68.16
62703;BME280;66022;50.448;18.122;2023-03-25T18:22:00;98159.39;;;10.76;67.99
62703;BME280;66022;50.448;18.122;2023-03-25T18:26:04;98158.12;;;10.72;68.41
62703;BME280;66022;50.448;18.122;2023-03-25T18:34:12;98154.13;;;10.63;69.41
62703;BME280;66022;50.448;18.122;2023-03-25T18:42:26;98150.45;;;10.54;69.17
62703;BME280;66022;50.448;18.122;2023-03-25T18:46:24;98149.03;;;10.47;69.31
62703;BME280;66022;50.448;18.122;2023-03-25T18:50:33;98147.92;;;10.43;68.38
62703;BME280;66022;50.448;18.122;2023-03-25T18:54:32;98149.83;;;10.41;68.21
62703;BME280;66022;50.448;18.122;2023-03-25T18:58:36;98152.35;;;10.35;68.92
62703;BME280;66022;50.448;18.122;2023-03-25T19:02:40;98154.90;;;10.30;68.94
62703;BME280;66022;50.448;18.122;2023-03-25T19:06:44;98158.17;;;10.16;72.36
62703;BME280;66022;50.448;18.122;2023-03-25T19:10:48;98160.43;;;10.07;70.28
62703;BME280;66022;50.448;18.122;2023-03-25T19:17:34;98170.84;;;9.59;72.39
62703;BME280;66022;50.448;18.122;2023-03-25T19:21:43;98171.23;;;9.58;71.26
62703;BME280;66022;50.448;18.122;2023-03-25T19:25:50;98175.00;;;9.53;72.88
62703;BME280;66022;50.448;18.122;2023-03-25T19:29:59;98178.33;;;9.52;71.10
62703;BME280;66022;50.448;18.122;2023-03-25T19:34:07;98182.40;;;9.50;70.20
62703;BME280;66022;50.448;18.122;2023-03-25T19:38:15;98185.28;;;9.47;70.14
62703;BME280;66022;50.448;18.122;2023-03-25T19:42:23;98187.37;;;9.47;69.55
62703;BME280;66022;50.448;18.122;2023-03-25T19:46:31;98187.44;;;9.45;70.13
62703;BME280;66022;50.448;18.122;2023-03-25T19:50:38;98186.58;;;9.46;69.49
62703;BME280;66022;50.448;18.122;2023-03-25T19:54:47;98185.83;;;9.45;69.72
62703;BME280;66022;50.448;18.122;2023-03-25T19:58:55;98188.13;;;9.44;70.00
62703;BME280;66022;50.448;18.122;2023-03-25T20:03:03;98191.75;;;9.44;70.72
62703;BME280;66022;50.448;18.122;2023-03-25T20:07:12;98194.59;;;9.42;70.23
62703;BME280;66022;50.448;18.122;2023-03-25T20:11:20;98197.85;;;9.43;69.79
62703;BME280;66022;50.448;18.122;2023-03-25T20:15:26;98199.70;;;9.42;69.58
62703;BME280;66022;50.448;18.122;2023-03-25T20:19:35;98202.34;;;9.41;69.63
62703;BME280;66022;50.448;18.122;2023-03-25T20:23:43;98203.30;;;9.40;69.20
62703;BME280;66022;50.448;18.122;2023-03-25T20:27:51;98204.33;;;9.37;70.63
62703;BME280;66022;50.448;18.122;2023-03-25T20:31:59;98205.53;;;9.38;68.60
62703;BME280;66022;50.448;18.122;2023-03-25T20:36:07;98207.11;;;9.36;69.68
62703;BME280;66022;50.448;18.122;2023-03-25T20:40:15;98209.84;;;9.37;68.43
62703;BME280;66022;50.448;18.122;2023-03-25T20:44:26;98211.90;;;9.38;68.82
62703;BME280;66022;50.448;18.122;2023-03-25T20:48:31;98213.79;;;9.37;69.11
62703;BME280;66022;50.448;18.122;2023-03-25T20:52:39;98215.37;;;9.37;68.96
62703;BME280;66022;50.448;18.122;2023-03-25T20:56:47;98217.08;;;9.36;69.65
62703;BME280;66022;50.448;18.122;2023-03-25T21:00:58;98218.75;;;9.37;68.91
62703;BME280;66022;50.448;18.122;2023-03-25T21:05:03;98221.67;;;9.37;69.06
62703;BME280;66022;50.448;18.122;2023-03-25T21:09:11;98224.43;;;9.37;69.57
62703;BME280;66022;50.448;18.122;2023-03-25T21:13:19;98226.98;;;9.38;69.09
62703;BME280;66022;50.448;18.122;2023-03-25T21:17:27;98228.74;;;9.38;69.87
62703;BME280;66022;50.448;18.122;2023-03-25T21:21:43;98229.80;;;9.40;69.21
62703;BME280;66022;50.448;18.122;2023-03-25T21:25:43;98230.17;;;9.38;70.56
62703;BME280;66022;50.448;18.122;2023-03-25T21:29:51;98231.70;;;9.40;69.63
62703;BME280;66022;50.448;18.122;2023-03-25T21:33:59;98232.76;;;9.41;69.69
62703;BME280;66022;50.448;18.122;2023-03-25T21:38:07;98233.95;;;9.40;69.65
62703;BME280;66022;50.448;18.122;2023-03-25T21:42:15;98234.58;;;9.42;69.75
62703;BME280;66022;50.448;18.122;2023-03-25T21:46:23;98235.64;;;9.41;70.71
62703;BME280;66022;50.448;18.122;2023-03-25T21:50:31;98237.00;;;9.42;69.42
62703;BME280;66022;50.448;18.122;2023-03-25T21:54:39;98238.32;;;9.43;69.51
62703;BME280;66022;50.448;18.122;2023-03-25T21:58:47;98239.76;;;9.43;69.50
62703;BME280;66022;50.448;18.122;2023-03-25T22:02:55;98240.67;;;9.43;69.54
62703;BME280;66022;50.448;18.122;2023-03-25T22:07:03;98240.19;;;9.42;69.93
62703;BME280;66022;50.448;18.122;2023-03-25T22:15:19;98240.72;;;9.41;69.63
62703;BME280;66022;50.448;18.122;2023-03-25T22:19:27;98240.26;;;9.40;69.51
62703;BME280;66022;50.448;18.122;2023-03-25T22:23:35;98240.09;;;9.40;69.58
62703;BME280;66022;50.448;18.122;2023-03-25T22:27:43;98240.19;;;9.37;69.75
62703;BME280;66022;50.448;18.122;2023-03-25T22:31:51;98239.14;;;9.37;69.91
62703;BME280;66022;50.448;18.122;2023-03-25T22:40:07;98234.70;;;9.31;69.84
62703;BME280;66022;50.448;18.122;2023-03-25T22:44:15;98232.45;;;9.31;69.74
62703;BME280;66022;50.448;18.122;2023-03-25T22:48:23;98229.66;;;9.29;70.37
62703;BME280;66022;50.448;18.122;2023-03-25T22:52:31;98228.66;;;9.31;69.64
62703;BME280;66022;50.448;18.122;2023-03-25T22:56:39;98227.63;;;9.29;71.00
62703;BME280;66022;50.448;18.122;2023-03-25T23:00:47;98228.31;;;9.29;69.96
62703;BME280;66022;50.448;18.122;2023-03-25T23:04:55;98229.39;;;9.30;69.91
62703;BME280;66022;50.448;18.122;2023-03-25T23:09:03;98229.63;;;9.30;69.83
62703;BME280;66022;50.448;18.122;2023-03-25T23:13:11;98229.00;;;9.31;70.12
62703;BME280;66022;50.448;18.122;2023-03-25T23:17:19;98229.32;;;9.32;70.51
62703;BME280;66022;50.448;18.122;2023-03-25T23:21:28;98228.67;;;9.33;70.22
62703;BME280;66022;50.448;18.122;2023-03-25T23:25:35;98227.78;;;9.34;71.01
62703;BME280;66022;50.448;18.122;2023-03-25T23:29:43;98225.98;;;9.36;70.91
62703;BME280;66022;50.448;18.122;2023-03-25T23:33:51;98226.06;;;9.37;70.97
62703;BME280;66022;50.448;18.122;2023-03-25T23:37:59;98226.48;;;9.33;72.27
62703;BME280;66022;50.448;18.122;2023-03-25T23:42:07;98227.35;;;9.33;71.56
62703;BME280;66022;50.448;18.122;2023-03-25T23:46:15;98228.31;;;9.29;73.55
62703;BME280;66022;50.448;18.122;2023-03-25T23:50:23;98229.32;;;9.29;71.39
62703;BME280;66022;50.448;18.122;2023-03-25T23:54:31;98229.64;;;9.29;71.21
62703;BME280;66022;50.448;18.122;2023-03-25T23:58:39;98229.39;;;9.27;71.50
